Time;durP1;ratioP1;P1;durP2;ratioP2;P2;SDS_P1;SDS_P2;PMS_P1;PMS_P2;Temp;Humidity;BMP_temperature;BMP_pressure;BME280_temperature;BME280_humidity;BME280_pressure;Samples;Min_cycle;Max_cycle;Signal;HPM_P1;HPM_P2
2023/06/21 00:00:46;;;;;;;26.38;8.35;;;21.50;99.90;;;;;;4994855;28;20048;-73
2023/06/21 00:03:12;;;;;;;20.67;7.30;;;21.40;99.90;;;;;;5006192;28;20042;-77
2023/06/21 00:05:38;;;;;;;20.85;7.97;;;21.20;99.90;;;;;;5009597;28;20058;-77
2023/06/21 00:08:04;;;;;;;23.70;7.63;;;21.20;99.90;;;;;;5014433;28;20112;-79
2023/06/21 00:10:30;;;;;;;16.83;8.00;;;21.30;99.90;;;;;;5030735;28;20130;-81
2023/06/21 00:12:57;;;;;;;18.27;7.88;;;21.20;99.90;;;;;;5012253;28;20537;-73
2023/06/21 00:15:24;;;;;;;22.67;8.43;;;21.10;99.90;;;;;;5010121;28;20108;-78
2023/06/21 00:17:50;;;;;;;20.08;8.05;;;21.00;99.90;;;;;;5012605;28;20044;-72
2023/06/21 00:20:16;;;;;;;19.45;8.25;;;20.90;99.90;;;;;;5012126;28;20037;-80
2023/06/21 00:22:45;;;;;;;15.82;7.43;;;20.80;99.90;;;;;;5009209;28;20034;-74
2023/06/21 00:25:12;;;;;;;17.70;7.30;;;20.80;99.90;;;;;;5008867;28;20034;-78
2023/06/21 00:27:38;;;;;;;20.05;8.52;;;20.80;99.90;;;;;;5009820;28;20049;-79
2023/06/21 00:30:04;;;;;;;16.65;8.05;;;20.80;99.90;;;;;;5019910;28;20029;-79
2023/06/21 00:32:30;;;;;;;20.55;8.45;;;20.90;99.90;;;;;;5008709;28;20050;-80
2023/06/21 00:34:56;;;;;;;17.77;7.32;;;20.90;99.90;;;;;;5008755;28;20103;-78
2023/06/21 00:37:21;;;;;;;22.50;8.70;;;21.00;99.90;;;;;;5008457;28;20064;-80
2023/06/21 00:39:47;;;;;;;18.70;8.65;;;20.90;99.90;;;;;;5021172;28;20033;-72
2023/06/21 00:42:13;;;;;;;22.50;8.57;;;20.80;99.90;;;;;;5008708;28;20033;-78
2023/06/21 00:44:39;;;;;;;17.55;8.45;;;20.70;99.90;;;;;;5007116;28;20034;-77
2023/06/21 00:47:05;;;;;;;17.05;8.35;;;20.60;99.90;;;;;;5006860;28;20489;-72
2023/06/21 00:49:31;;;;;;;16.70;8.75;;;20.60;99.90;;;;;;5007614;28;20073;-79
2023/06/21 00:51:57;;;;;;;24.42;9.05;;;20.60;99.90;;;;;;5007441;28;20038;-78
2023/06/21 00:54:27;;;;;;;19.20;8.32;;;20.50;99.90;;;;;;5009530;28;20033;-80
2023/06/21 00:56:53;;;;;;;19.02;8.43;;;20.40;99.90;;;;;;5008540;28;20382;-74
2023/06/21 00:59:19;;;;;;;22.80;8.10;;;20.40;99.90;;;;;;5021289;28;20124;-79
2023/06/21 01:01:45;;;;;;;21.25;8.48;;;20.40;99.90;;;;;;5008749;28;20038;-80
2023/06/21 01:04:12;;;;;;;27.27;9.15;;;20.40;99.90;;;;;;5006871;28;20045;-74
2023/06/21 01:07:16;;;;;;;17.05;8.13;;;20.40;99.90;;;;;;5007649;28;20600;-77
2023/06/21 01:10:08;;;;;;;15.68;8.60;;;20.30;99.90;;;;;;5008191;28;20033;-79
2023/06/21 01:13:04;;;;;;;17.50;8.45;;;20.30;99.90;;;;;;5008916;28;20413;-77
2023/06/21 01:15:36;;;;;;;21.98;9.20;;;20.30;99.90;;;;;;5000146;28;20083;-79
2023/06/21 01:18:05;;;;;;;16.27;8.93;;;20.30;99.90;;;;;;5007130;28;20034;-76
2023/06/21 01:20:34;;;;;;;18.70;8.75;;;20.30;99.90;;;;;;5007238;28;20044;-76
2023/06/21 01:23:24;;;;;;;19.02;8.55;;;20.20;99.90;;;;;;5008202;28;20049;-77
2023/06/21 01:26:20;;;;;;;21.83;9.38;;;20.10;99.90;;;;;;5008500;28;20034;-74
2023/06/21 01:29:07;;;;;;;17.48;8.48;;;20.00;99.90;;;;;;5008244;28;20753;-78
2023/06/21 01:31:34;;;;;;;19.95;9.00;;;19.90;99.90;;;;;;5009440;28;20046;-76
2023/06/21 01:34:01;;;;;;;20.23;9.85;;;19.80;99.90;;;;;;5005237;28;20160;-78
2023/06/21 01:36:26;;;;;;;16.75;9.45;;;19.70;99.90;;;;;;5005603;28;20431;-78
2023/06/21 01:38:56;;;;;;;19.42;9.82;;;19.70;99.90;;;;;;5005373;28;20061;-75
2023/06/21 01:41:22;;;;;;;21.23;9.23;;;19.70;99.90;;;;;;5007751;28;20041;-79
2023/06/21 01:43:48;;;;;;;19.90;9.50;;;19.70;99.90;;;;;;5006053;28;20386;-77
2023/06/21 01:46:14;;;;;;;18.58;9.45;;;19.80;99.90;;;;;;4987094;28;20045;-77
2023/06/21 01:48:42;;;;;;;20.30;9.27;;;19.70;99.90;;;;;;5004705;28;20025;-78
2023/06/21 01:51:09;;;;;;;18.88;9.50;;;19.70;99.90;;;;;;5006104;28;20062;-79
2023/06/21 01:53:36;;;;;;;20.33;9.10;;;19.60;99.90;;;;;;5005346;28;20445;-78
2023/06/21 01:56:06;;;;;;;16.52;9.55;;;19.60;99.90;;;;;;5003462;28;20033;-79
2023/06/21 01:58:32;;;;;;;21.45;8.80;;;19.50;99.90;;;;;;5001009;28;20385;-80
2023/06/21 02:00:59;;;;;;;21.23;9.50;;;19.50;99.90;;;;;;5003336;28;20072;-78
2023/06/21 02:03:27;;;;;;;19.48;9.45;;;19.50;99.90;;;;;;4995814;28;20034;-80
2023/06/21 02:05:54;;;;;;;20.13;9.38;;;19.70;99.90;;;;;;5002995;28;20041;-75
2023/06/21 02:08:21;;;;;;;17.48;9.38;;;19.70;99.90;;;;;;4992736;28;20109;-80
2023/06/21 02:10:47;;;;;;;21.10;9.55;;;19.60;99.90;;;;;;5004678;28;20033;-77
2023/06/21 02:13:16;;;;;;;17.83;8.90;;;19.60;99.90;;;;;;5005648;28;20040;-78
2023/06/21 02:15:42;;;;;;;23.17;10.05;;;19.60;99.90;;;;;;5004539;28;20041;-80
2023/06/21 02:18:09;;;;;;;21.75;10.10;;;19.50;99.90;;;;;;5003253;28;20018;-78
2023/06/21 02:20:35;;;;;;;16.30;9.60;;;19.50;99.90;;;;;;5006089;28;20062;-80
2023/06/21 02:23:01;;;;;;;19.17;9.88;;;19.40;99.90;;;;;;5003064;28;20091;-76
2023/06/21 02:25:27;;;;;;;21.30;10.48;;;19.40;99.90;;;;;;5004922;28;20482;-75
2023/06/21 02:27:53;;;;;;;25.02;10.20;;;19.40;99.90;;;;;;5010757;28;20023;-73
2023/06/21 02:30:19;;;;;;;23.58;10.50;;;19.30;99.90;;;;;;5005028;28;20589;-77
2023/06/21 02:32:44;;;;;;;23.02;10.25;;;19.30;99.90;;;;;;5006036;28;20549;-78
2023/06/21 02:35:10;;;;;;;17.95;10.15;;;19.30;99.90;;;;;;5006889;28;20041;-74
2023/06/21 02:37:36;;;;;;;19.05;10.73;;;19.40;99.90;;;;;;5008823;28;20037;-77
2023/06/21 02:40:09;;;;;;;25.50;11.02;;;19.40;99.90;;;;;;5006289;28;20402;-81
2023/06/21 02:42:36;;;;;;;19.15;11.18;;;19.40;99.90;;;;;;5005647;28;20471;-77
2023/06/21 02:45:02;;;;;;;21.90;10.93;;;19.40;99.90;;;;;;5011989;28;20117;-76
2023/06/21 02:47:27;;;;;;;20.20;11.15;;;19.30;99.90;;;;;;5005247;28;20109;-78
2023/06/21 02:49:53;;;;;;;23.17;11.25;;;19.20;99.90;;;;;;4988496;28;21637;-76
2023/06/21 02:52:18;;;;;;;23.20;11.75;;;19.00;99.90;;;;;;5008844;28;20040;-78
2023/06/21 02:54:44;;;;;;;24.67;11.30;;;18.90;99.90;;;;;;5006036;28;20049;-76
2023/06/21 02:57:10;;;;;;;23.77;11.00;;;18.90;99.90;;;;;;5006360;28;20566;-80
2023/06/21 02:59:36;;;;;;;22.95;10.63;;;18.90;99.90;;;;;;5002469;28;20033;-78
2023/06/21 03:02:02;;;;;;;25.25;11.27;;;19.00;99.90;;;;;;5007321;28;20034;-78
2023/06/21 03:04:28;;;;;;;24.42;11.13;;;18.90;99.90;;;;;;5007472;28;20030;-78
2023/06/21 03:06:53;;;;;;;21.30;10.10;;;18.90;99.90;;;;;;5013503;28;20072;-78
2023/06/21 03:09:19;;;;;;;22.77;10.13;;;18.80;99.90;;;;;;5025434;28;20860;-78
2023/06/21 03:11:47;;;;;;;17.98;9.30;;;18.80;99.90;;;;;;5018260;28;20021;-78
2023/06/21 03:14:12;;;;;;;19.70;10.35;;;18.80;99.90;;;;;;5021003;28;20021;-78
2023/06/21 03:16:40;;;;;;;22.70;10.48;;;18.70;99.90;;;;;;5008202;28;20026;-78
2023/06/21 03:19:07;;;;;;;19.73;9.90;;;18.60;99.90;;;;;;4989791;28;20120;-77
2023/06/21 03:21:33;;;;;;;20.42;9.70;;;18.60;99.90;;;;;;5020770;28;20033;-77
2023/06/21 03:23:59;;;;;;;22.90;10.57;;;18.60;99.90;;;;;;5030397;28;20069;-75
2023/06/21 03:26:25;;;;;;;25.38;11.20;;;18.50;99.90;;;;;;5031534;28;20064;-79
2023/06/21 03:28:50;;;;;;;21.98;11.18;;;18.40;99.90;;;;;;5031270;28;20064;-79
2023/06/21 03:31:19;;;;;;;21.27;10.55;;;18.40;99.90;;;;;;5011050;28;20103;-78
2023/06/21 03:33:45;;;;;;;24.77;11.68;;;18.40;99.90;;;;;;5003310;28;20537;-77
2023/06/21 03:36:11;;;;;;;21.73;10.73;;;18.30;99.90;;;;;;4991331;28;20038;-77
2023/06/21 03:38:36;;;;;;;20.65;11.63;;;18.20;99.90;;;;;;4992065;28;20444;-79
2023/06/21 03:41:02;;;;;;;22.08;11.43;;;18.20;99.90;;;;;;5003598;28;20029;-75
2023/06/21 03:43:28;;;;;;;26.10;11.75;;;18.40;99.90;;;;;;5010572;28;20030;-80
2023/06/21 03:45:53;;;;;;;24.05;11.38;;;18.40;99.90;;;;;;5011522;28;20032;-77
2023/06/21 03:48:19;;;;;;;22.45;11.32;;;18.50;99.90;;;;;;5010747;28;20521;-76
2023/06/21 03:50:44;;;;;;;20.90;10.80;;;18.50;99.90;;;;;;5011477;28;20065;-80
2023/06/21 03:53:10;;;;;;;19.73;11.23;;;18.60;99.90;;;;;;5010634;28;20034;-78
2023/06/21 03:55:37;;;;;;;24.58;11.40;;;18.60;99.90;;;;;;5009587;28;20065;-76
2023/06/21 03:58:03;;;;;;;19.73;11.30;;;18.50;99.90;;;;;;5014726;28;20038;-73
2023/06/21 04:00:28;;;;;;;23.15;11.57;;;18.60;99.90;;;;;;5025719;28;20721;-77
2023/06/21 04:02:54;;;;;;;22.35;11.68;;;18.60;99.90;;;;;;4998505;28;20069;-79
2023/06/21 04:05:20;;;;;;;21.90;11.25;;;18.70;99.90;;;;;;5008539;28;20207;-78
2023/06/21 04:07:49;;;;;;;23.42;11.85;;;18.50;99.90;;;;;;5010237;28;20037;-79
2023/06/21 04:10:14;;;;;;;24.60;11.82;;;18.50;99.90;;;;;;5008670;28;20089;-79
2023/06/21 04:12:40;;;;;;;23.90;11.52;;;18.50;99.90;;;;;;5008060;28;20042;-78
2023/06/21 04:15:07;;;;;;;25.33;12.38;;;18.50;99.90;;;;;;5008276;28;20026;-75
2023/06/21 04:17:32;;;;;;;21.35;12.18;;;18.60;99.90;;;;;;5009553;28;20029;-78
2023/06/21 04:19:58;;;;;;;22.27;11.52;;;18.50;99.90;;;;;;5009459;28;20661;-77
2023/06/21 04:22:25;;;;;;;20.73;12.38;;;18.50;99.90;;;;;;5008018;28;20045;-78
2023/06/21 04:24:51;;;;;;;38.35;12.40;;;18.70;99.90;;;;;;5010393;28;20390;-80
2023/06/21 04:27:17;;;;;;;29.00;12.00;;;18.80;99.90;;;;;;5007607;28;20038;-78
2023/06/21 04:29:42;;;;;;;26.52;12.52;;;18.80;99.90;;;;;;5015342;28;20044;-75
2023/06/21 04:32:09;;;;;;;22.85;12.48;;;18.80;99.90;;;;;;5006064;28;20053;-77
2023/06/21 04:34:35;;;;;;;26.75;13.10;;;18.80;99.90;;;;;;5006206;28;20525;-75
2023/06/21 04:37:05;;;;;;;23.90;13.55;;;18.90;99.90;;;;;;5008286;28;20069;-75
2023/06/21 04:39:32;;;;;;;30.20;14.70;;;19.00;99.90;;;;;;5007372;28;20034;-76
2023/06/21 04:41:58;;;;;;;25.45;12.73;;;19.00;99.90;;;;;;5009136;28;20125;-77
2023/06/21 04:44:24;;;;;;;28.85;14.43;;;18.90;99.90;;;;;;5009741;28;20097;-79
2023/06/21 04:46:50;;;;;;;26.75;12.95;;;18.80;99.90;;;;;;5014756;28;20074;-79
2023/06/21 04:49:17;;;;;;;28.02;12.82;;;18.80;99.90;;;;;;5029592;28;20112;-78
2023/06/21 04:51:43;;;;;;;26.42;12.65;;;18.80;99.90;;;;;;5030068;28;20056;-77
2023/06/21 04:54:09;;;;;;;23.52;12.75;;;18.80;99.90;;;;;;5024708;28;20052;-78
2023/06/21 04:56:36;;;;;;;29.20;13.52;;;18.80;99.90;;;;;;5028634;28;20461;-78
2023/06/21 04:59:03;;;;;;;31.83;14.07;;;18.80;99.90;;;;;;5028026;28;20033;-79
2023/06/21 05:01:30;;;;;;;24.38;14.00;;;19.00;99.90;;;;;;5023257;28;20116;-77
2023/06/21 05:03:56;;;;;;;25.88;13.25;;;19.10;99.90;;;;;;5019548;28;20033;-76
2023/06/21 05:06:24;;;;;;;24.60;12.38;;;19.20;99.90;;;;;;5027154;28;20960;-77
2023/06/21 05:08:50;;;;;;;29.95;14.23;;;19.30;99.90;;;;;;5029795;28;20105;-76
2023/06/21 05:11:18;;;;;;;27.48;13.60;;;19.40;99.90;;;;;;5028710;28;20108;-77
2023/06/21 05:13:44;;;;;;;22.50;13.20;;;19.60;99.90;;;;;;5025628;28;20034;-79
2023/06/21 05:16:10;;;;;;;24.02;13.40;;;19.70;99.90;;;;;;5026670;28;20484;-78
2023/06/21 05:18:35;;;;;;;25.27;14.32;;;19.70;99.90;;;;;;5029555;28;20028;-79
2023/06/21 05:21:01;;;;;;;23.92;13.55;;;19.80;99.90;;;;;;5029619;28;20548;-77
2023/06/21 05:23:27;;;;;;;22.65;13.20;;;19.90;99.90;;;;;;5028577;28;20083;-79
2023/06/21 05:25:53;;;;;;;22.45;13.82;;;20.00;99.90;;;;;;5029483;28;20033;-79
2023/06/21 05:28:18;;;;;;;39.53;14.40;;;20.10;99.90;;;;;;5028409;28;20017;-78
2023/06/21 05:30:44;;;;;;;23.73;14.40;;;20.20;99.90;;;;;;5029157;28;20041;-77
2023/06/21 05:33:09;;;;;;;23.70;13.60;;;20.40;99.90;;;;;;4994007;28;20050;-78
2023/06/21 05:35:35;;;;;;;29.60;13.20;;;20.50;99.90;;;;;;4989980;28;20041;-81
2023/06/21 05:38:01;;;;;;;24.20;14.13;;;20.70;99.90;;;;;;4990020;28;20819;-78
2023/06/21 05:40:26;;;;;;;31.95;13.98;;;20.80;99.90;;;;;;4989104;28;20113;-80
2023/06/21 05:42:52;;;;;;;26.52;13.93;;;20.80;99.90;;;;;;4989892;28;20116;-79
2023/06/21 05:45:19;;;;;;;28.85;14.38;;;20.70;99.90;;;;;;4988180;28;20562;-77
2023/06/21 05:47:45;;;;;;;24.02;14.52;;;20.70;99.90;;;;;;4989688;28;20091;-77
2023/06/21 05:50:11;;;;;;;32.50;15.02;;;20.70;99.90;;;;;;4993321;28;20037;-78
2023/06/21 05:52:36;;;;;;;25.98;14.40;;;20.70;99.90;;;;;;5009347;28;20029;-77
2023/06/21 05:55:02;;;;;;;31.55;15.50;;;20.80;99.90;;;;;;5018197;28;20390;-79
2023/06/21 05:57:28;;;;;;;27.05;15.13;;;20.90;99.90;;;;;;5028071;28;20037;-79
2023/06/21 05:59:55;;;;;;;34.10;15.35;;;20.90;99.90;;;;;;5028642;28;20038;-79
2023/06/21 06:02:21;;;;;;;25.20;14.20;;;20.90;99.90;;;;;;5025095;28;20045;-78
2023/06/21 06:04:48;;;;;;;29.45;15.23;;;20.90;99.90;;;;;;5009050;28;20434;-77
2023/06/21 06:07:13;;;;;;;31.58;15.35;;;21.00;99.90;;;;;;5008469;28;20032;-77
2023/06/21 06:09:39;;;;;;;25.83;15.07;;;21.00;99.90;;;;;;5008813;28;20042;-78
2023/06/21 06:12:05;;;;;;;26.13;14.25;;;21.00;99.90;;;;;;5010925;28;20034;-79
2023/06/21 06:14:31;;;;;;;25.98;13.95;;;21.10;99.90;;;;;;5027990;28;20112;-78
2023/06/21 06:16:57;;;;;;;26.42;14.05;;;21.20;99.90;;;;;;5028680;28;20502;-78
2023/06/21 06:19:22;;;;;;;30.15;15.70;;;21.30;99.90;;;;;;5027866;28;20025;-77
2023/06/21 06:21:48;;;;;;;24.65;14.95;;;21.40;99.90;;;;;;5028716;28;20030;-78
2023/06/21 06:24:14;;;;;;;26.73;14.27;;;21.40;99.90;;;;;;5027789;28;20489;-77
2023/06/21 06:26:40;;;;;;;24.55;13.90;;;21.40;99.90;;;;;;5028591;28;20025;-79
2023/06/21 06:29:05;;;;;;;26.33;14.52;;;21.50;99.90;;;;;;5028349;28;20044;-78
2023/06/21 06:31:31;;;;;;;27.50;14.77;;;21.60;99.90;;;;;;5027548;28;20049;-79
2023/06/21 06:33:57;;;;;;;28.05;14.48;;;21.70;99.90;;;;;;4995366;28;20356;-78
2023/06/21 06:36:22;;;;;;;24.00;13.38;;;21.80;99.90;;;;;;5012210;28;20040;-78
2023/06/21 06:38:49;;;;;;;19.52;12.30;;;21.80;99.90;;;;;;5028499;28;20389;-78
2023/06/21 06:41:15;;;;;;;24.63;14.18;;;21.90;99.90;;;;;;5027534;28;20037;-77
2023/06/21 06:43:41;;;;;;;21.30;13.07;;;21.90;99.90;;;;;;5028400;28;20047;-77
2023/06/21 06:46:07;;;;;;;22.25;13.20;;;22.00;99.90;;;;;;5028565;28;20034;-80
2023/06/21 06:48:33;;;;;;;24.92;14.25;;;22.00;99.90;;;;;;5009977;28;20053;-78
2023/06/21 06:50:58;;;;;;;22.55;13.90;;;21.90;99.90;;;;;;5028417;28;20642;-76
2023/06/21 06:53:24;;;;;;;24.80;14.30;;;21.80;99.90;;;;;;5027691;28;20064;-78
2023/06/21 06:55:51;;;;;;;25.27;14.57;;;21.70;99.90;;;;;;5021204;28;20088;-78
2023/06/21 06:58:19;;;;;;;25.33;14.13;;;21.80;99.90;;;;;;5013554;28;20033;-78
2023/06/21 07:00:44;;;;;;;22.42;13.52;;;21.80;99.90;;;;;;5031988;28;21337;-78
2023/06/21 07:03:10;;;;;;;25.10;14.13;;;21.90;99.90;;;;;;5013573;28;20036;-75
2023/06/21 07:05:36;;;;;;;23.40;13.60;;;22.00;99.90;;;;;;4992125;28;20061;-76
2023/06/21 07:08:03;;;;;;;23.58;13.65;;;22.20;99.90;;;;;;4992785;28;20482;-78
2023/06/21 07:10:29;;;;;;;24.48;14.60;;;22.30;99.90;;;;;;4992239;28;20368;-79
2023/06/21 07:12:55;;;;;;;22.65;13.80;;;22.40;99.90;;;;;;4992846;28;20069;-79
2023/06/21 07:15:20;;;;;;;20.23;13.43;;;22.60;99.90;;;;;;4991672;28;20089;-78
2023/06/21 07:17:46;;;;;;;25.80;11.82;;;22.90;99.90;;;;;;4992293;28;20030;-78
2023/06/21 07:20:12;;;;;;;18.65;9.48;;;23.20;99.90;;;;;;5025219;28;20038;-79
2023/06/21 07:22:37;;;;;;;16.92;10.85;;;23.40;99.90;;;;;;5031331;28;20052;-80
2023/06/21 07:25:04;;;;;;;19.58;10.20;;;23.80;99.90;;;;;;5031840;28;20470;-80
2023/06/21 07:27:30;;;;;;;12.85;8.48;;;24.00;99.90;;;;;;5031087;28;20033;-78
2023/06/21 07:29:56;;;;;;;15.60;7.93;;;24.00;99.90;;;;;;5031699;28;20033;-78
2023/06/21 07:32:21;;;;;;;10.23;7.03;;;24.20;99.90;;;;;;5007330;28;20406;-77
2023/06/21 07:34:48;;;;;;;13.77;7.78;;;24.50;99.90;;;;;;5007109;28;20026;-80
2023/06/21 07:37:14;;;;;;;14.48;6.80;;;24.60;99.90;;;;;;5012441;28;20032;-74
2023/06/21 07:39:40;;;;;;;10.75;6.75;;;24.90;99.90;;;;;;5031138;28;20037;-78
2023/06/21 07:42:07;;;;;;;10.85;5.43;;;25.10;99.90;;;;;;5030070;28;20477;-78
2023/06/21 07:44:33;;;;;;;10.55;5.43;;;25.20;99.90;;;;;;5030441;28;20022;-79
2023/06/21 07:46:59;;;;;;;14.38;5.80;;;25.00;99.90;;;;;;5031357;28;20039;-77
2023/06/21 07:49:24;;;;;;;11.65;6.43;;;24.90;99.90;;;;;;5030325;28;20042;-78
2023/06/21 07:51:50;;;;;;;18.25;6.50;;;25.00;99.90;;;;;;5028516;28;20040;-77
2023/06/21 07:54:16;;;;;;;14.73;6.28;;;25.00;99.90;;;;;;5030750;28;20033;-75
2023/06/21 07:56:42;;;;;;;14.85;6.75;;;25.00;99.90;;;;;;5031186;28;20025;-77
2023/06/21 07:59:07;;;;;;;12.70;6.15;;;25.20;99.90;;;;;;5029769;28;20032;-78
2023/06/21 08:01:34;;;;;;;11.82;6.22;;;25.40;99.90;;;;;;5030735;28;20651;-78
2023/06/21 08:04:00;;;;;;;10.43;6.00;;;25.50;99.90;;;;;;4998890;28;20041;-78
2023/06/21 08:06:27;;;;;;;21.67;6.88;;;25.60;99.90;;;;;;4991002;28;20034;-76
2023/06/21 08:08:52;;;;;;;10.15;6.47;;;25.50;99.90;;;;;;5005495;28;20030;-77
2023/06/21 08:11:18;;;;;;;11.10;6.20;;;25.50;99.90;;;;;;5003006;28;20030;-78
2023/06/21 08:13:44;;;;;;;11.35;5.90;;;25.70;99.90;;;;;;5011156;28;20034;-78
2023/06/21 08:16:10;;;;;;;12.35;5.68;;;25.70;99.90;;;;;;5011165;28;20037;-79
2023/06/21 08:18:35;;;;;;;9.27;5.65;;;25.80;99.90;;;;;;5010290;28;20158;-79
2023/06/21 08:21:01;;;;;;;11.95;4.65;;;25.80;99.90;;;;;;5010940;28;20422;-77
2023/06/21 08:23:27;;;;;;;11.88;5.50;;;25.90;99.90;;;;;;5010154;28;20033;-78
2023/06/21 08:25:52;;;;;;;9.38;4.90;;;25.90;99.90;;;;;;5010774;28;20021;-78
2023/06/21 08:28:18;;;;;;;10.63;5.10;;;26.00;99.90;;;;;;4992590;28;20080;-74
2023/06/21 08:30:44;;;;;;;10.43;4.53;;;26.10;99.90;;;;;;5011026;28;20041;-77
2023/06/21 08:33:10;;;;;;;11.13;4.30;;;26.00;99.90;;;;;;5010887;28;20049;-77
2023/06/21 08:35:37;;;;;;;8.35;4.25;;;26.20;99.90;;;;;;4992471;28;20056;-77
2023/06/21 08:38:03;;;;;;;12.73;4.93;;;26.20;99.90;;;;;;5010535;28;20374;-77
2023/06/21 08:40:33;;;;;;;11.32;4.72;;;26.40;99.90;;;;;;5009758;28;20036;-75
2023/06/21 08:43:02;;;;;;;17.35;4.70;;;26.40;99.90;;;;;;5010690;28;20030;-78
2023/06/21 08:45:28;;;;;;;8.88;4.28;;;26.50;99.90;;;;;;5009693;28;20049;-77
2023/06/21 08:47:56;;;;;;;9.30;4.35;;;26.50;99.90;;;;;;5010418;28;20076;-78
2023/06/21 08:50:23;;;;;;;10.00;4.47;;;26.40;99.90;;;;;;5009648;28;20482;-77
2023/06/21 08:52:52;;;;;;;7.65;4.13;;;26.30;99.90;;;;;;5010394;28;20025;-77
2023/06/21 08:55:20;;;;;;;10.15;4.15;;;26.50;99.90;;;;;;5020521;28;20029;-75
2023/06/21 08:57:56;;;;;;;8.60;4.10;;;26.50;99.90;;;;;;5030116;28;20064;-79
2023/06/21 09:00:47;;;;;;;7.05;3.70;;;26.40;99.90;;;;;;5029098;28;20037;-74
2023/06/21 09:03:19;;;;;;;8.43;4.13;;;26.60;99.90;;;;;;5020437;28;20092;-77
2023/06/21 09:05:47;;;;;;;11.65;4.20;;;26.40;99.60;;;;;;5009910;28;20540;-77
2023/06/21 09:08:15;;;;;;;9.60;3.90;;;26.30;98.90;;;;;;5010109;28;20425;-77
2023/06/21 09:10:43;;;;;;;8.57;3.95;;;26.00;99.90;;;;;;5009165;28;20026;-76
2023/06/21 09:13:10;;;;;;;7.63;4.10;;;25.90;99.90;;;;;;5010334;28;20033;-77
2023/06/21 09:15:37;;;;;;;8.52;4.47;;;25.80;99.90;;;;;;5009033;28;20029;-77
2023/06/21 09:18:03;;;;;;;8.90;3.80;;;25.80;99.90;;;;;;5009735;28;20054;-75
2023/06/21 09:20:29;;;;;;;7.65;4.15;;;25.50;99.90;;;;;;5027819;28;20060;-77
2023/06/21 09:22:57;;;;;;;8.57;4.03;;;25.30;99.90;;;;;;5029556;28;20042;-78
2023/06/21 09:25:23;;;;;;;13.98;4.50;;;25.30;99.90;;;;;;5028761;28;20056;-75
2023/06/21 09:27:48;;;;;;;11.20;4.35;;;25.20;99.90;;;;;;5028050;28;20076;-79
2023/06/21 09:30:14;;;;;;;10.55;4.35;;;24.90;99.90;;;;;;5029533;28;20025;-76
2023/06/21 09:32:41;;;;;;;10.23;4.90;;;24.80;99.90;;;;;;5017853;28;20125;-78
2023/06/21 09:35:07;;;;;;;16.33;5.05;;;24.50;99.90;;;;;;4990110;28;20121;-78
2023/06/21 09:37:35;;;;;;;13.73;5.55;;;24.20;99.90;;;;;;4989561;28;20037;-75
2023/06/21 09:40:01;;;;;;;13.55;6.50;;;23.80;99.90;;;;;;4989689;28;20057;-77
2023/06/21 09:42:27;;;;;;;11.98;5.10;;;23.20;99.90;;;;;;4987618;28;20509;-74
2023/06/21 09:44:53;;;;;;;16.50;4.90;;;21.70;99.90;;;;;;4997532;28;20029;-72
2023/06/21 09:47:19;;;;;;;12.18;4.72;;;20.60;99.90;;;;;;5029138;28;20029;-74
2023/06/21 09:49:46;;;;;;;12.45;4.13;;;20.00;99.90;;;;;;5028311;28;20108;-74
2023/06/21 09:52:13;;;;;;;10.10;3.70;;;19.40;99.90;;;;;;5029149;28;20445;-76
2023/06/21 09:54:45;;;;;;;9.23;3.53;;;19.10;99.90;;;;;;5027979;28;20929;-75
2023/06/21 09:57:11;;;;;;;8.68;3.63;;;18.80;99.90;;;;;;5029046;28;20039;-75
2023/06/21 09:59:37;;;;;;;12.98;3.20;;;18.70;99.90;;;;;;5028299;28;20029;-76
2023/06/21 10:02:07;;;;;;;11.75;3.30;;;18.80;99.90;;;;;;5028781;28;20064;-76
2023/06/21 10:04:41;;;;;;;7.45;3.10;;;18.80;99.90;;;;;;4992524;28;20034;-76
2023/06/21 10:07:07;;;;;;;13.38;3.55;;;18.90;99.90;;;;;;5009085;28;20034;-77
2023/06/21 10:09:37;;;;;;;11.57;3.28;;;19.00;99.90;;;;;;5008127;28;20489;-75
2023/06/21 10:12:04;;;;;;;13.48;3.42;;;18.80;99.90;;;;;;5008964;28;20084;-79
2023/06/21 10:14:30;;;;;;;8.38;3.22;;;18.70;99.90;;;;;;5008113;28;20033;-78
2023/06/21 10:16:57;;;;;;;10.95;3.22;;;18.80;99.90;;;;;;5016566;28;20128;-78
2023/06/21 10:19:24;;;;;;;15.68;3.40;;;18.90;99.90;;;;;;5022455;28;20034;-72
2023/06/21 10:22:04;;;;;;;10.73;3.20;;;18.90;99.90;;;;;;5028377;28;20026;-78
2023/06/21 10:24:36;;;;;;;8.98;3.13;;;18.90;99.90;;;;;;5025639;28;20030;-78
2023/06/21 10:27:06;;;;;;;10.57;3.22;;;19.00;99.90;;;;;;5027307;28;20452;-78
2023/06/21 10:29:33;;;;;;;;;;;18.90;99.90;;;;;;5007507;28;20096;-77
2023/06/21 10:32:00;;;;;;;12.20;3.20;;;18.70;99.90;;;;;;5031080;28;19952;-78
2023/06/21 10:34:29;;;;;;;13.00;3.38;;;18.80;99.90;;;;;;4992967;28;20084;-75
2023/06/21 10:37:06;;;;;;;11.13;3.65;;;18.80;99.90;;;;;;4993368;28;20045;-77
2023/06/21 10:39:33;;;;;;;16.58;3.53;;;18.80;99.90;;;;;;4992455;28;20121;-75
2023/06/21 10:42:00;;;;;;;12.30;3.20;;;18.70;99.90;;;;;;4993279;28;20034;-76
2023/06/21 10:44:28;;;;;;;14.18;3.55;;;18.30;99.90;;;;;;4992761;28;20065;-73
2023/06/21 10:46:56;;;;;;;9.13;3.10;;;18.30;99.90;;;;;;4992918;28;20081;-76
2023/06/21 10:49:24;;;;;;;11.85;3.55;;;18.30;99.90;;;;;;4992824;28;20065;-75
2023/06/21 10:51:51;;;;;;;8.65;3.85;;;18.30;99.90;;;;;;4992663;28;20089;-76
2023/06/21 10:54:18;;;;;;;13.35;4.00;;;18.20;99.90;;;;;;4993395;28;20026;-76
2023/06/21 10:56:43;;;;;;;13.18;3.92;;;18.10;99.90;;;;;;5028066;28;20649;-75
2023/06/21 10:59:10;;;;;;;12.00;4.55;;;18.10;99.90;;;;;;5032279;28;20037;-75
2023/06/21 11:01:36;;;;;;;13.27;4.07;;;18.20;99.90;;;;;;5031357;28;20111;-78
2023/06/21 11:04:04;;;;;;;8.43;3.67;;;18.40;99.90;;;;;;4999550;28;20411;-78
2023/06/21 11:06:33;;;;;;;11.60;4.35;;;18.50;99.90;;;;;;5007066;28;20034;-77
2023/06/21 11:09:16;;;;;;;11.13;4.35;;;18.60;99.90;;;;;;4992698;28;20144;-79
2023/06/21 11:11:50;;;;;;;15.23;4.60;;;18.70;99.90;;;;;;4991916;28;20030;-76
2023/06/21 11:14:21;;;;;;;13.05;5.60;;;18.60;99.90;;;;;;4992711;28;20112;-75
2023/06/21 11:16:47;;;;;;;10.93;5.55;;;18.50;99.90;;;;;;4991746;28;20033;-75
2023/06/21 11:19:14;;;;;;;10.57;5.43;;;18.50;99.90;;;;;;5011446;28;20037;-75
2023/06/21 11:21:49;;;;;;;13.57;5.95;;;18.70;99.90;;;;;;5011119;28;20033;-75
2023/06/21 11:24:20;;;;;;;14.40;6.00;;;18.90;99.90;;;;;;5021369;28;20033;-76
2023/06/21 11:27:01;;;;;;;16.67;6.55;;;19.10;99.90;;;;;;5031277;28;20484;-77
2023/06/21 11:29:36;;;;;;;15.38;5.80;;;19.30;99.90;;;;;;5031195;28;20481;-76
2023/06/21 11:32:09;;;;;;;18.65;6.82;;;19.50;99.90;;;;;;5028871;28;20053;-75
2023/06/21 11:34:35;;;;;;;14.93;6.75;;;19.70;99.90;;;;;;5011042;28;20037;-75
2023/06/21 11:37:47;;;;;;;15.23;7.30;;;19.70;99.90;;;;;;5011798;28;20026;-75
2023/06/21 11:40:15;;;;;;;13.88;7.32;;;19.60;99.90;;;;;;4995249;28;20088;-77
2023/06/21 11:42:45;;;;;;;13.55;7.30;;;19.50;99.90;;;;;;5029224;28;20234;-74
2023/06/21 11:45:32;;;;;;;17.67;7.85;;;19.60;99.90;;;;;;5031617;28;20156;-77
2023/06/21 11:47:59;;;;;;;20.15;8.05;;;19.60;99.90;;;;;;5031413;28;20045;-75
2023/06/21 11:50:35;;;;;;;18.77;8.48;;;19.70;99.90;;;;;;5030985;28;20059;-74
2023/06/21 11:53:23;;;;;;;16.42;8.38;;;19.80;99.90;;;;;;5029000;28;20030;-77
2023/06/21 11:55:51;;;;;;;17.40;8.82;;;20.00;99.90;;;;;;5030456;28;20113;-76
2023/06/21 11:58:17;;;;;;;17.40;8.45;;;20.30;99.90;;;;;;5031047;28;20033;-75
2023/06/21 12:00:45;;;;;;;18.60;8.07;;;20.70;99.90;;;;;;5030257;28;20044;-75
2023/06/21 12:03:11;;;;;;;16.25;8.55;;;20.90;99.90;;;;;;5018087;28;20103;-75
2023/06/21 12:05:54;;;;;;;17.08;9.10;;;21.10;99.90;;;;;;5030229;28;20029;-75
2023/06/21 12:08:22;;;;;;;20.42;9.90;;;21.30;99.90;;;;;;5030991;28;20025;-73
2023/06/21 12:10:48;;;;;;;19.58;9.57;;;21.40;99.90;;;;;;5030135;28;20033;-74
2023/06/21 12:13:16;;;;;;;21.67;9.07;;;21.40;99.90;;;;;;5030949;28;20057;-75
2023/06/21 12:16:03;;;;;;;21.75;10.55;;;21.60;99.90;;;;;;5012229;28;20466;-76
2023/06/21 12:18:30;;;;;;;26.92;11.00;;;21.50;99.90;;;;;;5030730;28;20697;-76
2023/06/21 12:20:58;;;;;;;23.42;10.93;;;21.80;99.90;;;;;;5030205;28;20038;-78
2023/06/21 12:23:24;;;;;;;21.05;11.60;;;22.10;99.90;;;;;;5030576;28;20021;-76
2023/06/21 12:25:55;;;;;;;23.40;12.77;;;22.20;99.90;;;;;;5029773;28;20056;-75
2023/06/21 12:28:22;;;;;;;21.85;12.73;;;22.30;99.90;;;;;;5012622;28;20124;-76
2023/06/21 12:30:55;;;;;;;24.00;12.63;;;22.40;99.90;;;;;;5022462;28;20473;-78
2023/06/21 12:33:39;;;;;;;22.38;12.50;;;22.50;99.90;;;;;;5017606;28;20057;-75
2023/06/21 12:36:23;;;;;;;22.00;12.63;;;22.60;99.90;;;;;;5010476;28;20105;-76